sensor_id;sensor_type;location;lat;lon;timestamp;P1;durP1;ratioP1;P2;durP2;ratioP2
36443;SDS011;24692;45.642;13.806;2023-03-31T00:01:29;11.87;;;3.60;;
36443;SDS011;24692;45.642;13.806;2023-03-31T00:03:58;12.77;;;3.73;;
36443;SDS011;24692;45.642;13.806;2023-03-31T00:06:31;11.60;;;3.80;;
36443;SDS011;24692;45.642;13.806;2023-03-31T00:09:05;15.60;;;3.93;;
36443;SDS011;24692;45.642;13.806;2023-03-31T00:11:31;9.43;;;3.77;;
36443;SDS011;24692;45.642;13.806;2023-03-31T00:13:57;12.13;;;3.30;;
36443;SDS011;24692;45.642;13.806;2023-03-31T00:16:23;10.77;;;3.00;;
36443;SDS011;24692;45.642;13.806;2023-03-31T00:18:49;16.70;;;3.50;;
36443;SDS011;24692;45.642;13.806;2023-03-31T00:21:16;12.83;;;3.67;;
36443;SDS011;24692;45.642;13.806;2023-03-31T00:23:54;12.53;;;3.77;;
36443;SDS011;24692;45.642;13.806;2023-03-31T00:26:22;10.40;;;3.60;;
36443;SDS011;24692;45.642;13.806;2023-03-31T00:28:48;9.77;;;3.47;;
36443;SDS011;24692;45.642;13.806;2023-03-31T00:31:15;9.47;;;3.43;;
36443;SDS011;24692;45.642;13.806;2023-03-31T00:33:40;8.97;;;3.43;;
36443;SDS011;24692;45.642;13.806;2023-03-31T00:36:06;8.57;;;3.27;;
36443;SDS011;24692;45.642;13.806;2023-03-31T00:38:32;11.63;;;3.60;;
36443;SDS011;24692;45.642;13.806;2023-03-31T00:40:59;13.07;;;3.93;;
36443;SDS011;24692;45.642;13.806;2023-03-31T00:43:32;8.80;;;3.90;;
36443;SDS011;24692;45.642;13.806;2023-03-31T00:46:04;12.80;;;4.03;;
36443;SDS011;24692;45.642;13.806;2023-03-31T00:48:39;11.23;;;4.40;;
36443;SDS011;24692;45.642;13.806;2023-03-31T00:51:21;10.23;;;3.50;;
36443;SDS011;24692;45.642;13.806;2023-03-31T00:53:52;14.27;;;3.33;;
36443;SDS011;24692;45.642;13.806;2023-03-31T00:56:24;10.57;;;3.30;;
36443;SDS011;24692;45.642;13.806;2023-03-31T00:58:51;11.63;;;3.47;;
36443;SDS011;24692;45.642;13.806;2023-03-31T01:01:22;13.77;;;4.10;;
36443;SDS011;24692;45.642;13.806;2023-03-31T01:03:48;10.73;;;3.80;;
36443;SDS011;24692;45.642;13.806;2023-03-31T01:06:15;11.50;;;3.90;;
36443;SDS011;24692;45.642;13.806;2023-03-31T01:08:44;12.10;;;3.77;;
36443;SDS011;24692;45.642;13.806;2023-03-31T01:11:13;12.60;;;3.90;;
36443;SDS011;24692;45.642;13.806;2023-03-31T01:13:42;12.47;;;3.87;;
36443;SDS011;24692;45.642;13.806;2023-03-31T01:16:10;10.53;;;3.90;;
36443;SDS011;24692;45.642;13.806;2023-03-31T01:18:36;10.00;;;3.87;;
36443;SDS011;24692;45.642;13.806;2023-03-31T01:21:29;12.40;;;3.97;;
36443;SDS011;24692;45.642;13.806;2023-03-31T01:27:00;8.13;;;4.03;;
36443;SDS011;24692;45.642;13.806;2023-03-31T01:36:26;11.50;;;4.13;;
36443;SDS011;24692;45.642;13.806;2023-03-31T01:44:41;14.13;;;4.03;;
36443;SDS011;24692;45.642;13.806;2023-03-31T01:47:32;17.53;;;4.10;;
36443;SDS011;24692;45.642;13.806;2023-03-31T01:58:59;10.90;;;4.23;;
36443;SDS011;24692;45.642;13.806;2023-03-31T02:06:39;13.17;;;4.30;;
36443;SDS011;24692;45.642;13.806;2023-03-31T02:09:10;14.63;;;4.80;;
36443;SDS011;24692;45.642;13.806;2023-03-31T02:11:39;11.20;;;4.30;;
36443;SDS011;24692;45.642;13.806;2023-03-31T02:14:07;10.27;;;4.43;;
36443;SDS011;24692;45.642;13.806;2023-03-31T02:16:36;16.77;;;4.67;;
36443;SDS011;24692;45.642;13.806;2023-03-31T02:19:06;15.50;;;4.43;;
36443;SDS011;24692;45.642;13.806;2023-03-31T02:21:35;12.60;;;4.53;;
36443;SDS011;24692;45.642;13.806;2023-03-31T02:24:04;13.37;;;4.50;;
36443;SDS011;24692;45.642;13.806;2023-03-31T02:26:35;12.43;;;4.50;;
36443;SDS011;24692;45.642;13.806;2023-03-31T02:29:04;17.63;;;4.43;;
36443;SDS011;24692;45.642;13.806;2023-03-31T02:31:45;9.73;;;3.90;;
36443;SDS011;24692;45.642;13.806;2023-03-31T02:34:16;15.70;;;4.60;;
36443;SDS011;24692;45.642;13.806;2023-03-31T02:36:43;12.97;;;4.17;;
36443;SDS011;24692;45.642;13.806;2023-03-31T02:39:11;12.53;;;4.00;;
36443;SDS011;24692;45.642;13.806;2023-03-31T02:41:43;10.07;;;4.30;;
36443;SDS011;24692;45.642;13.806;2023-03-31T02:44:10;10.83;;;4.50;;
36443;SDS011;24692;45.642;13.806;2023-03-31T02:46:36;11.93;;;4.83;;
36443;SDS011;24692;45.642;13.806;2023-03-31T02:49:03;11.13;;;4.83;;
36443;SDS011;24692;45.642;13.806;2023-03-31T03:10:39;10.40;;;4.43;;
36443;SDS011;24692;45.642;13.806;2023-03-31T03:13:21;12.07;;;4.40;;
36443;SDS011;24692;45.642;13.806;2023-03-31T03:18:27;13.10;;;4.73;;
36443;SDS011;24692;45.642;13.806;2023-03-31T03:20:53;7.70;;;4.00;;
36443;SDS011;24692;45.642;13.806;2023-03-31T03:23:20;9.40;;;4.27;;
36443;SDS011;24692;45.642;13.806;2023-03-31T03:25:46;9.87;;;3.67;;
36443;SDS011;24692;45.642;13.806;2023-03-31T03:28:12;12.73;;;4.07;;
36443;SDS011;24692;45.642;13.806;2023-03-31T03:30:37;14.93;;;5.07;;
36443;SDS011;24692;45.642;13.806;2023-03-31T03:33:03;16.57;;;4.73;;
36443;SDS011;24692;45.642;13.806;2023-03-31T03:35:31;8.20;;;4.13;;
36443;SDS011;24692;45.642;13.806;2023-03-31T03:37:57;11.33;;;4.30;;
36443;SDS011;24692;45.642;13.806;2023-03-31T03:40:23;13.30;;;4.33;;
36443;SDS011;24692;45.642;13.806;2023-03-31T03:42:48;10.83;;;4.40;;
36443;SDS011;24692;45.642;13.806;2023-03-31T03:45:14;12.77;;;4.37;;
36443;SDS011;24692;45.642;13.806;2023-03-31T03:47:40;11.53;;;4.33;;
36443;SDS011;24692;45.642;13.806;2023-03-31T03:50:06;11.20;;;4.70;;
36443;SDS011;24692;45.642;13.806;2023-03-31T03:52:32;12.50;;;4.30;;
36443;SDS011;24692;45.642;13.806;2023-03-31T03:54:57;10.07;;;4.13;;
36443;SDS011;24692;45.642;13.806;2023-03-31T03:57:23;13.13;;;3.90;;
36443;SDS011;24692;45.642;13.806;2023-03-31T03:59:49;15.50;;;3.87;;
36443;SDS011;24692;45.642;13.806;2023-03-31T04:02:14;12.77;;;4.23;;
36443;SDS011;24692;45.642;13.806;2023-03-31T04:04:40;12.63;;;4.10;;
36443;SDS011;24692;45.642;13.806;2023-03-31T04:07:06;11.83;;;3.97;;
36443;SDS011;24692;45.642;13.806;2023-03-31T04:09:31;15.07;;;4.90;;
36443;SDS011;24692;45.642;13.806;2023-03-31T04:11:57;10.90;;;4.23;;
36443;SDS011;24692;45.642;13.806;2023-03-31T04:14:22;10.40;;;4.70;;
36443;SDS011;24692;45.642;13.806;2023-03-31T04:16:49;11.70;;;4.10;;
36443;SDS011;24692;45.642;13.806;2023-03-31T04:19:15;12.57;;;4.73;;
36443;SDS011;24692;45.642;13.806;2023-03-31T04:21:41;12.53;;;4.07;;
36443;SDS011;24692;45.642;13.806;2023-03-31T04:24:09;11.40;;;4.63;;
36443;SDS011;24692;45.642;13.806;2023-03-31T04:26:40;13.63;;;4.33;;
36443;SDS011;24692;45.642;13.806;2023-03-31T04:29:12;8.53;;;4.57;;
36443;SDS011;24692;45.642;13.806;2023-03-31T04:31:40;10.90;;;4.57;;
36443;SDS011;24692;45.642;13.806;2023-03-31T04:34:07;11.80;;;4.93;;
36443;SDS011;24692;45.642;13.806;2023-03-31T04:36:40;11.77;;;4.60;;
36443;SDS011;24692;45.642;13.806;2023-03-31T04:39:11;11.47;;;4.83;;
36443;SDS011;24692;45.642;13.806;2023-03-31T04:41:50;13.87;;;4.60;;
36443;SDS011;24692;45.642;13.806;2023-03-31T04:44:17;10.77;;;4.50;;
36443;SDS011;24692;45.642;13.806;2023-03-31T04:46:42;11.30;;;4.80;;
36443;SDS011;24692;45.642;13.806;2023-03-31T04:49:08;10.17;;;4.53;;
36443;SDS011;24692;45.642;13.806;2023-03-31T04:51:33;13.53;;;4.30;;
36443;SDS011;24692;45.642;13.806;2023-03-31T04:53:59;11.90;;;4.77;;
36443;SDS011;24692;45.642;13.806;2023-03-31T04:56:25;13.67;;;4.60;;
36443;SDS011;24692;45.642;13.806;2023-03-31T04:58:51;11.10;;;4.80;;
36443;SDS011;24692;45.642;13.806;2023-03-31T05:01:17;15.63;;;4.43;;
36443;SDS011;24692;45.642;13.806;2023-03-31T05:03:43;8.97;;;4.37;;
36443;SDS011;24692;45.642;13.806;2023-03-31T05:06:09;13.80;;;4.63;;
36443;SDS011;24692;45.642;13.806;2023-03-31T05:08:35;12.43;;;4.37;;
36443;SDS011;24692;45.642;13.806;2023-03-31T05:11:01;10.07;;;3.97;;
36443;SDS011;24692;45.642;13.806;2023-03-31T05:13:28;13.87;;;4.63;;
36443;SDS011;24692;45.642;13.806;2023-03-31T05:15:54;11.90;;;3.90;;
36443;SDS011;24692;45.642;13.806;2023-03-31T05:18:19;12.17;;;4.10;;
36443;SDS011;24692;45.642;13.806;2023-03-31T05:20:45;13.10;;;4.20;;
36443;SDS011;24692;45.642;13.806;2023-03-31T05:23:11;12.93;;;4.33;;
36443;SDS011;24692;45.642;13.806;2023-03-31T05:25:37;11.07;;;4.40;;
36443;SDS011;24692;45.642;13.806;2023-03-31T05:28:03;12.03;;;4.97;;
36443;SDS011;24692;45.642;13.806;2023-03-31T05:30:29;18.47;;;6.17;;
36443;SDS011;24692;45.642;13.806;2023-03-31T05:32:55;14.73;;;5.07;;
36443;SDS011;24692;45.642;13.806;2023-03-31T05:35:21;12.50;;;4.17;;
36443;SDS011;24692;45.642;13.806;2023-03-31T05:37:46;14.90;;;4.87;;
36443;SDS011;24692;45.642;13.806;2023-03-31T05:40:12;12.03;;;4.63;;
36443;SDS011;24692;45.642;13.806;2023-03-31T05:42:38;9.57;;;4.63;;
36443;SDS011;24692;45.642;13.806;2023-03-31T05:45:04;18.57;;;5.93;;
36443;SDS011;24692;45.642;13.806;2023-03-31T05:47:30;13.43;;;5.50;;
36443;SDS011;24692;45.642;13.806;2023-03-31T05:49:56;11.37;;;4.57;;
36443;SDS011;24692;45.642;13.806;2023-03-31T05:52:22;11.37;;;4.83;;
36443;SDS011;24692;45.642;13.806;2023-03-31T05:54:48;8.30;;;4.57;;
36443;SDS011;24692;45.642;13.806;2023-03-31T05:57:14;17.27;;;5.47;;
36443;SDS011;24692;45.642;13.806;2023-03-31T05:59:41;13.53;;;4.50;;
36443;SDS011;24692;45.642;13.806;2023-03-31T06:02:07;13.50;;;4.60;;
36443;SDS011;24692;45.642;13.806;2023-03-31T06:04:35;14.83;;;4.50;;
36443;SDS011;24692;45.642;13.806;2023-03-31T06:07:06;14.60;;;5.03;;
36443;SDS011;24692;45.642;13.806;2023-03-31T06:09:32;12.33;;;4.50;;
36443;SDS011;24692;45.642;13.806;2023-03-31T06:11:58;14.23;;;4.80;;
36443;SDS011;24692;45.642;13.806;2023-03-31T06:14:23;13.43;;;4.60;;
36443;SDS011;24692;45.642;13.806;2023-03-31T06:16:51;12.73;;;4.87;;
36443;SDS011;24692;45.642;13.806;2023-03-31T06:19:16;9.70;;;5.00;;
36443;SDS011;24692;45.642;13.806;2023-03-31T06:21:42;11.50;;;5.00;;
36443;SDS011;24692;45.642;13.806;2023-03-31T06:24:08;15.70;;;5.30;;
36443;SDS011;24692;45.642;13.806;2023-03-31T06:26:34;10.60;;;5.73;;
36443;SDS011;24692;45.642;13.806;2023-03-31T06:28:59;17.83;;;5.63;;
36443;SDS011;24692;45.642;13.806;2023-03-31T06:31:25;17.67;;;5.30;;
36443;SDS011;24692;45.642;13.806;2023-03-31T06:33:51;15.00;;;5.73;;
36443;SDS011;24692;45.642;13.806;2023-03-31T06:36:18;16.93;;;5.40;;
36443;SDS011;24692;45.642;13.806;2023-03-31T06:38:46;10.50;;;4.77;;
36443;SDS011;24692;45.642;13.806;2023-03-31T06:41:13;16.60;;;5.50;;
36443;SDS011;24692;45.642;13.806;2023-03-31T06:43:40;15.97;;;4.93;;
36443;SDS011;24692;45.642;13.806;2023-03-31T06:46:06;13.50;;;5.00;;
36443;SDS011;24692;45.642;13.806;2023-03-31T06:48:32;17.90;;;4.77;;
36443;SDS011;24692;45.642;13.806;2023-03-31T06:50:58;12.17;;;4.70;;
36443;SDS011;24692;45.642;13.806;2023-03-31T06:53:25;32.33;;;6.30;;
36443;SDS011;24692;45.642;13.806;2023-03-31T06:55:51;25.27;;;5.50;;
36443;SDS011;24692;45.642;13.806;2023-03-31T06:58:17;18.60;;;5.17;;
36443;SDS011;24692;45.642;13.806;2023-03-31T07:00:42;35.00;;;6.70;;
36443;SDS011;24692;45.642;13.806;2023-03-31T07:03:10;31.23;;;6.90;;
36443;SDS011;24692;45.642;13.806;2023-03-31T07:05:36;17.53;;;4.97;;
36443;SDS011;24692;45.642;13.806;2023-03-31T07:08:02;21.13;;;5.63;;
36443;SDS011;24692;45.642;13.806;2023-03-31T07:10:29;17.57;;;5.10;;
36443;SDS011;24692;45.642;13.806;2023-03-31T07:12:55;17.70;;;4.90;;
36443;SDS011;24692;45.642;13.806;2023-03-31T07:15:22;18.10;;;4.80;;
36443;SDS011;24692;45.642;13.806;2023-03-31T07:17:48;15.53;;;4.73;;
36443;SDS011;24692;45.642;13.806;2023-03-31T07:20:18;14.90;;;4.67;;
36443;SDS011;24692;45.642;13.806;2023-03-31T07:22:45;15.37;;;4.93;;
36443;SDS011;24692;45.642;13.806;2023-03-31T07:25:12;14.37;;;5.17;;
36443;SDS011;24692;45.642;13.806;2023-03-31T07:27:39;19.17;;;5.63;;
36443;SDS011;24692;45.642;13.806;2023-03-31T07:30:06;14.03;;;5.07;;
36443;SDS011;24692;45.642;13.806;2023-03-31T07:32:36;21.43;;;5.20;;
36443;SDS011;24692;45.642;13.806;2023-03-31T07:35:06;16.27;;;5.47;;
36443;SDS011;24692;45.642;13.806;2023-03-31T07:37:34;19.77;;;5.67;;
36443;SDS011;24692;45.642;13.806;2023-03-31T07:40:07;20.10;;;5.90;;
36443;SDS011;24692;45.642;13.806;2023-03-31T07:42:54;17.80;;;5.90;;
36443;SDS011;24692;45.642;13.806;2023-03-31T07:45:21;15.27;;;4.67;;
36443;SDS011;24692;45.642;13.806;2023-03-31T07:47:49;16.47;;;5.50;;
36443;SDS011;24692;45.642;13.806;2023-03-31T07:50:15;19.83;;;5.03;;
36443;SDS011;24692;45.642;13.806;2023-03-31T07:52:42;16.97;;;5.03;;
36443;SDS011;24692;45.642;13.806;2023-03-31T07:55:08;13.90;;;5.10;;
36443;SDS011;24692;45.642;13.806;2023-03-31T07:57:35;22.23;;;5.43;;
36443;SDS011;24692;45.642;13.806;2023-03-31T08:00:02;14.27;;;4.70;;
36443;SDS011;24692;45.642;13.806;2023-03-31T08:02:32;20.07;;;5.40;;
36443;SDS011;24692;45.642;13.806;2023-03-31T08:04:57;16.17;;;5.07;;
36443;SDS011;24692;45.642;13.806;2023-03-31T08:07:23;15.50;;;5.33;;
36443;SDS011;24692;45.642;13.806;2023-03-31T08:09:50;19.00;;;5.63;;
36443;SDS011;24692;45.642;13.806;2023-03-31T08:12:16;24.60;;;6.03;;
36443;SDS011;24692;45.642;13.806;2023-03-31T08:14:41;14.03;;;5.30;;
36443;SDS011;24692;45.642;13.806;2023-03-31T08:17:08;19.03;;;5.73;;
36443;SDS011;24692;45.642;13.806;2023-03-31T08:19:34;14.40;;;5.43;;
36443;SDS011;24692;45.642;13.806;2023-03-31T08:21:59;16.67;;;5.67;;
36443;SDS011;24692;45.642;13.806;2023-03-31T08:24:26;15.30;;;4.93;;
36443;SDS011;24692;45.642;13.806;2023-03-31T08:26:51;21.23;;;5.97;;
36443;SDS011;24692;45.642;13.806;2023-03-31T08:29:17;17.80;;;6.67;;
36443;SDS011;24692;45.642;13.806;2023-03-31T08:31:43;16.50;;;5.80;;
36443;SDS011;24692;45.642;13.806;2023-03-31T08:34:08;22.23;;;5.73;;
36443;SDS011;24692;45.642;13.806;2023-03-31T08:36:34;19.10;;;6.07;;
36443;SDS011;24692;45.642;13.806;2023-03-31T08:39:00;15.93;;;6.57;;
36443;SDS011;24692;45.642;13.806;2023-03-31T08:43:56;13.27;;;6.23;;
36443;SDS011;24692;45.642;13.806;2023-03-31T08:46:25;12.07;;;6.07;;
36443;SDS011;24692;45.642;13.806;2023-03-31T08:48:53;15.83;;;5.63;;
36443;SDS011;24692;45.642;13.806;2023-03-31T08:51:26;16.93;;;6.47;;
36443;SDS011;24692;45.642;13.806;2023-03-31T08:56:44;18.47;;;6.43;;
36443;SDS011;24692;45.642;13.806;2023-03-31T08:59:25;13.83;;;6.40;;
36443;SDS011;24692;45.642;13.806;2023-03-31T09:08:13;15.10;;;6.27;;
36443;SDS011;24692;45.642;13.806;2023-03-31T09:19:17;11.57;;;5.60;;
36443;SDS011;24692;45.642;13.806;2023-03-31T09:21:50;11.53;;;5.60;;
36443;SDS011;24692;45.642;13.806;2023-03-31T09:30:01;13.27;;;6.53;;
36443;SDS011;24692;45.642;13.806;2023-03-31T09:32:20;12.20;;;7.23;;
36443;SDS011;24692;45.642;13.806;2023-03-31T09:34:52;14.17;;;8.13;;
36443;SDS011;24692;45.642;13.806;2023-03-31T09:37:21;16.60;;;9.27;;
36443;SDS011;24692;45.642;13.806;2023-03-31T09:39:51;21.20;;;10.23;;
36443;SDS011;24692;45.642;13.806;2023-03-31T09:42:16;18.90;;;9.60;;
36443;SDS011;24692;45.642;13.806;2023-03-31T09:44:43;19.90;;;12.43;;
36443;SDS011;24692;45.642;13.806;2023-03-31T09:47:24;22.70;;;11.43;;
36443;SDS011;24692;45.642;13.806;2023-03-31T09:49:57;16.50;;;10.73;;
36443;SDS011;24692;45.642;13.806;2023-03-31T09:52:27;19.33;;;11.17;;
36443;SDS011;24692;45.642;13.806;2023-03-31T09:54:57;21.10;;;11.23;;
36443;SDS011;24692;45.642;13.806;2023-03-31T09:57:30;18.27;;;10.60;;
36443;SDS011;24692;45.642;13.806;2023-03-31T10:00:17;17.53;;;10.20;;
36443;SDS011;24692;45.642;13.806;2023-03-31T10:05:28;16.17;;;10.90;;
36443;SDS011;24692;45.642;13.806;2023-03-31T10:11:23;19.10;;;9.40;;
36443;SDS011;24692;45.642;13.806;2023-03-31T10:13:51;17.33;;;7.60;;
36443;SDS011;24692;45.642;13.806;2023-03-31T10:18:52;14.07;;;5.93;;
36443;SDS011;24692;45.642;13.806;2023-03-31T10:21:22;10.73;;;4.63;;
36443;SDS011;24692;45.642;13.806;2023-03-31T10:23:50;11.73;;;4.20;;
36443;SDS011;24692;45.642;13.806;2023-03-31T10:26:35;11.33;;;4.30;;
36443;SDS011;24692;45.642;13.806;2023-03-31T10:29:02;12.70;;;4.20;;
36443;SDS011;24692;45.642;13.806;2023-03-31T10:31:36;9.37;;;3.90;;
36443;SDS011;24692;45.642;13.806;2023-03-31T10:34:11;5.80;;;2.90;;
36443;SDS011;24692;45.642;13.806;2023-03-31T10:36:46;15.17;;;3.43;;
36443;SDS011;24692;45.642;13.806;2023-03-31T10:39:15;10.97;;;2.97;;
36443;SDS011;24692;45.642;13.806;2023-03-31T10:41:42;8.70;;;2.60;;
36443;SDS011;24692;45.642;13.806;2023-03-31T10:44:32;11.10;;;2.87;;
36443;SDS011;24692;45.642;13.806;2023-03-31T10:47:05;9.80;;;3.07;;
36443;SDS011;24692;45.642;13.806;2023-03-31T10:49:38;9.97;;;3.23;;
36443;SDS011;24692;45.642;13.806;2023-03-31T10:52:26;10.03;;;3.00;;
36443;SDS011;24692;45.642;13.806;2023-03-31T10:54:52;10.83;;;3.10;;
36443;SDS011;24692;45.642;13.806;2023-03-31T10:57:29;8.17;;;3.17;;
36443;SDS011;24692;45.642;13.806;2023-03-31T11:00:23;10.37;;;3.20;;
36443;SDS011;24692;45.642;13.806;2023-03-31T11:08:41;8.37;;;2.90;;
36443;SDS011;24692;45.642;13.806;2023-03-31T11:16:32;14.07;;;2.97;;
36443;SDS011;24692;45.642;13.806;2023-03-31T11:30:00;15.03;;;2.80;;
36443;SDS011;24692;45.642;13.806;2023-03-31T11:41:12;11.07;;;2.70;;
36443;SDS011;24692;45.642;13.806;2023-03-31T11:44:00;12.43;;;2.80;;
36443;SDS011;24692;45.642;13.806;2023-03-31T11:46:50;7.50;;;2.70;;
36443;SDS011;24692;45.642;13.806;2023-03-31T11:49:24;13.30;;;3.00;;
36443;SDS011;24692;45.642;13.806;2023-03-31T11:51:59;8.73;;;2.90;;
36443;SDS011;24692;45.642;13.806;2023-03-31T11:57:28;8.60;;;2.97;;
36443;SDS011;24692;45.642;13.806;2023-03-31T12:00:18;9.13;;;3.20;;
36443;SDS011;24692;45.642;13.806;2023-03-31T12:05:56;14.07;;;2.80;;
36443;SDS011;24692;45.642;13.806;2023-03-31T12:11:06;10.00;;;3.70;;
36443;SDS011;24692;45.642;13.806;2023-03-31T12:13:54;11.13;;;3.10;;
36443;SDS011;24692;45.642;13.806;2023-03-31T12:16:46;11.33;;;3.23;;
36443;SDS011;24692;45.642;13.806;2023-03-31T12:19:24;11.17;;;3.53;;
36443;SDS011;24692;45.642;13.806;2023-03-31T12:22:12;8.80;;;3.17;;
36443;SDS011;24692;45.642;13.806;2023-03-31T12:24:51;7.10;;;3.20;;
36443;SDS011;24692;45.642;13.806;2023-03-31T12:32:35;13.40;;;3.33;;
36443;SDS011;24692;45.642;13.806;2023-03-31T12:35:09;9.83;;;2.70;;
36443;SDS011;24692;45.642;13.806;2023-03-31T12:49:21;9.83;;;2.80;;
36443;SDS011;24692;45.642;13.806;2023-03-31T12:52:11;14.60;;;3.07;;
36443;SDS011;24692;45.642;13.806;2023-03-31T12:57:29;10.20;;;3.00;;
36443;SDS011;24692;45.642;13.806;2023-03-31T13:02:45;8.80;;;2.83;;
36443;SDS011;24692;45.642;13.806;2023-03-31T13:08:07;8.67;;;3.03;;
36443;SDS011;24692;45.642;13.806;2023-03-31T13:13:27;18.77;;;3.90;;
36443;SDS011;24692;45.642;13.806;2023-03-31T13:15:56;12.77;;;3.40;;
36443;SDS011;24692;45.642;13.806;2023-03-31T13:18:26;7.13;;;2.60;;
36443;SDS011;24692;45.642;13.806;2023-03-31T13:20:59;7.40;;;2.90;;
36443;SDS011;24692;45.642;13.806;2023-03-31T13:23:34;8.63;;;2.90;;
36443;SDS011;24692;45.642;13.806;2023-03-31T13:26:33;9.97;;;2.93;;
36443;SDS011;24692;45.642;13.806;2023-03-31T13:29:09;13.50;;;2.90;;
36443;SDS011;24692;45.642;13.806;2023-03-31T13:37:23;11.80;;;3.10;;
36443;SDS011;24692;45.642;13.806;2023-03-31T13:40:05;9.57;;;2.73;;
36443;SDS011;24692;45.642;13.806;2023-03-31T13:50:56;9.80;;;2.93;;
36443;SDS011;24692;45.642;13.806;2023-03-31T14:07:20;9.20;;;2.93;;
36443;SDS011;24692;45.642;13.806;2023-03-31T14:09:53;8.97;;;3.20;;
36443;SDS011;24692;45.642;13.806;2023-03-31T14:12:29;10.10;;;3.17;;
36443;SDS011;24692;45.642;13.806;2023-03-31T14:14:56;10.13;;;3.13;;
36443;SDS011;24692;45.642;13.806;2023-03-31T14:17:23;11.43;;;3.67;;
36443;SDS011;24692;45.642;13.806;2023-03-31T14:36:37;10.20;;;3.80;;
36443;SDS011;24692;45.642;13.806;2023-03-31T14:39:16;10.67;;;3.37;;
36443;SDS011;24692;45.642;13.806;2023-03-31T14:41:50;11.60;;;3.37;;
36443;SDS011;24692;45.642;13.806;2023-03-31T14:44:20;11.23;;;3.33;;
36443;SDS011;24692;45.642;13.806;2023-03-31T14:46:47;12.80;;;3.40;;
36443;SDS011;24692;45.642;13.806;2023-03-31T14:51:45;16.03;;;3.50;;
36443;SDS011;24692;45.642;13.806;2023-03-31T14:54:16;10.10;;;3.60;;
36443;SDS011;24692;45.642;13.806;2023-03-31T14:56:42;8.80;;;3.00;;
36443;SDS011;24692;45.642;13.806;2023-03-31T14:59:19;11.00;;;3.50;;
36443;SDS011;24692;45.642;13.806;2023-03-31T15:01:51;12.90;;;3.37;;
36443;SDS011;24692;45.642;13.806;2023-03-31T15:04:20;10.63;;;3.30;;
36443;SDS011;24692;45.642;13.806;2023-03-31T15:06:48;13.07;;;3.53;;
36443;SDS011;24692;45.642;13.806;2023-03-31T15:09:19;7.97;;;3.30;;
36443;SDS011;24692;45.642;13.806;2023-03-31T15:11:56;10.87;;;3.83;;
36443;SDS011;24692;45.642;13.806;2023-03-31T15:14:34;11.10;;;4.20;;
36443;SDS011;24692;45.642;13.806;2023-03-31T15:17:04;11.33;;;3.60;;
36443;SDS011;24692;45.642;13.806;2023-03-31T15:19:32;8.43;;;3.20;;
36443;SDS011;24692;45.642;13.806;2023-03-31T15:22:15;8.00;;;3.20;;
36443;SDS011;24692;45.642;13.806;2023-03-31T15:24:45;10.80;;;3.80;;
36443;SDS011;24692;45.642;13.806;2023-03-31T15:29:40;12.80;;;3.90;;
36443;SDS011;24692;45.642;13.806;2023-03-31T15:32:34;11.80;;;3.63;;
36443;SDS011;24692;45.642;13.806;2023-03-31T15:35:01;9.67;;;3.40;;
36443;SDS011;24692;45.642;13.806;2023-03-31T15:37:37;10.23;;;3.27;;
36443;SDS011;24692;45.642;13.806;2023-03-31T15:40:10;11.03;;;3.43;;
36443;SDS011;24692;45.642;13.806;2023-03-31T15:42:48;10.60;;;3.87;;
36443;SDS011;24692;45.642;13.806;2023-03-31T15:47:55;12.53;;;3.70;;
36443;SDS011;24692;45.642;13.806;2023-03-31T15:50:22;11.57;;;3.60;;
36443;SDS011;24692;45.642;13.806;2023-03-31T15:52:50;11.80;;;4.43;;
36443;SDS011;24692;45.642;13.806;2023-03-31T15:55:28;11.23;;;3.93;;
36443;SDS011;24692;45.642;13.806;2023-03-31T15:57:55;9.53;;;4.07;;
36443;SDS011;24692;45.642;13.806;2023-03-31T16:03:18;12.03;;;4.50;;
36443;SDS011;24692;45.642;13.806;2023-03-31T16:06:00;14.00;;;4.10;;
36443;SDS011;24692;45.642;13.806;2023-03-31T16:08:43;12.53;;;4.47;;
36443;SDS011;24692;45.642;13.806;2023-03-31T16:11:27;12.87;;;4.53;;
36443;SDS011;24692;45.642;13.806;2023-03-31T16:14:04;10.13;;;4.13;;
36443;SDS011;24692;45.642;13.806;2023-03-31T16:16:35;18.47;;;4.93;;
36443;SDS011;24692;45.642;13.806;2023-03-31T16:19:05;9.27;;;4.07;;
36443;SDS011;24692;45.642;13.806;2023-03-31T16:21:41;13.73;;;4.20;;
36443;SDS011;24692;45.642;13.806;2023-03-31T16:24:11;7.97;;;4.50;;
36443;SDS011;24692;45.642;13.806;2023-03-31T16:26:38;11.07;;;4.30;;
36443;SDS011;24692;45.642;13.806;2023-03-31T16:29:04;9.97;;;4.37;;
36443;SDS011;24692;45.642;13.806;2023-03-31T16:31:31;11.80;;;4.80;;
36443;SDS011;24692;45.642;13.806;2023-03-31T16:34:03;13.40;;;4.97;;
36443;SDS011;24692;45.642;13.806;2023-03-31T16:36:30;10.33;;;4.47;;
36443;SDS011;24692;45.642;13.806;2023-03-31T16:38:56;12.20;;;4.90;;
36443;SDS011;24692;45.642;13.806;2023-03-31T16:41:23;11.23;;;4.27;;
36443;SDS011;24692;45.642;13.806;2023-03-31T16:43:52;15.33;;;5.13;;
36443;SDS011;24692;45.642;13.806;2023-03-31T16:46:18;12.43;;;5.07;;
36443;SDS011;24692;45.642;13.806;2023-03-31T16:48:45;12.57;;;4.77;;
36443;SDS011;24692;45.642;13.806;2023-03-31T16:51:11;10.40;;;4.67;;
36443;SDS011;24692;45.642;13.806;2023-03-31T16:53:36;14.77;;;4.90;;
36443;SDS011;24692;45.642;13.806;2023-03-31T16:56:03;13.27;;;4.97;;
36443;SDS011;24692;45.642;13.806;2023-03-31T16:58:34;15.43;;;4.70;;
36443;SDS011;24692;45.642;13.806;2023-03-31T17:01:02;10.37;;;4.63;;
36443;SDS011;24692;45.642;13.806;2023-03-31T17:03:28;9.80;;;5.03;;
36443;SDS011;24692;45.642;13.806;2023-03-31T17:05:54;13.67;;;5.07;;
36443;SDS011;24692;45.642;13.806;2023-03-31T17:08:22;13.67;;;5.80;;
36443;SDS011;24692;45.642;13.806;2023-03-31T17:10:58;15.53;;;5.70;;
36443;SDS011;24692;45.642;13.806;2023-03-31T17:13:27;11.30;;;5.37;;
36443;SDS011;24692;45.642;13.806;2023-03-31T17:15:53;13.97;;;5.60;;
36443;SDS011;24692;45.642;13.806;2023-03-31T17:18:19;11.53;;;6.17;;
36443;SDS011;24692;45.642;13.806;2023-03-31T17:20:45;17.60;;;6.30;;
36443;SDS011;24692;45.642;13.806;2023-03-31T17:23:11;9.53;;;5.07;;
36443;SDS011;24692;45.642;13.806;2023-03-31T17:25:37;14.33;;;6.57;;
36443;SDS011;24692;45.642;13.806;2023-03-31T17:28:03;15.30;;;6.63;;
36443;SDS011;24692;45.642;13.806;2023-03-31T17:30:30;16.73;;;6.97;;
36443;SDS011;24692;45.642;13.806;2023-03-31T17:32:56;14.83;;;6.90;;
36443;SDS011;24692;45.642;13.806;2023-03-31T17:35:23;19.07;;;6.97;;
36443;SDS011;24692;45.642;13.806;2023-03-31T17:37:50;13.90;;;6.70;;
36443;SDS011;24692;45.642;13.806;2023-03-31T17:40:21;18.03;;;8.63;;
36443;SDS011;24692;45.642;13.806;2023-03-31T17:42:48;13.47;;;7.80;;
36443;SDS011;24692;45.642;13.806;2023-03-31T17:45:14;14.33;;;8.53;;
36443;SDS011;24692;45.642;13.806;2023-03-31T17:47:40;18.00;;;8.03;;
36443;SDS011;24692;45.642;13.806;2023-03-31T17:50:06;16.40;;;7.50;;
36443;SDS011;24692;45.642;13.806;2023-03-31T17:52:33;18.77;;;8.70;;
36443;SDS011;24692;45.642;13.806;2023-03-31T17:54:59;18.20;;;8.57;;
36443;SDS011;24692;45.642;13.806;2023-03-31T17:57:26;21.83;;;7.53;;
36443;SDS011;24692;45.642;13.806;2023-03-31T17:59:52;15.10;;;8.20;;
36443;SDS011;24692;45.642;13.806;2023-03-31T18:02:18;17.17;;;7.83;;
36443;SDS011;24692;45.642;13.806;2023-03-31T18:04:44;14.13;;;8.40;;
36443;SDS011;24692;45.642;13.806;2023-03-31T18:07:10;14.33;;;7.60;;